createdAt,value
2018-12-29T00:00:36.396Z,32.33
2018-12-29T00:03:39.811Z,33.03
2018-12-29T00:06:43.256Z,34.67
2018-12-29T00:09:46.710Z,35.83
2018-12-29T00:12:50.140Z,31.73
2018-12-29T00:15:53.557Z,31.43
2018-12-29T00:18:56.996Z,33.50
2018-12-29T00:22:00.437Z,33.73
2018-12-29T00:25:03.857Z,34.03
2018-12-29T00:28:07.300Z,35.97
2018-12-29T00:31:10.716Z,34.47
2018-12-29T00:34:14.158Z,36.63
2018-12-29T00:37:17.576Z,37.47
2018-12-29T00:40:21.019Z,36.43
2018-12-29T00:43:24.457Z,36.80
2018-12-29T00:46:27.892Z,40.17
2018-12-29T00:49:31.304Z,34.73
2018-12-29T00:52:34.749Z,36.03
2018-12-29T00:55:38.265Z,32.27
2018-12-29T00:58:41.696Z,33.50
2018-12-29T01:01:45.135Z,32.37
2018-12-29T01:04:48.580Z,34.67
2018-12-29T01:07:51.997Z,35.50
2018-12-29T01:10:55.439Z,34.90
2018-12-29T01:13:58.872Z,31.30
2018-12-29T01:17:02.309Z,36.03
2018-12-29T01:20:06.019Z,32.20
2018-12-29T01:23:09.470Z,32.60
2018-12-29T01:26:12.884Z,32.63
2018-12-29T01:29:16.340Z,31.97
2018-12-29T01:32:19.749Z,37.00
2018-12-29T01:35:23.192Z,33.40
2018-12-29T01:38:26.629Z,36.67
2018-12-29T01:41:30.073Z,37.10
2018-12-29T01:44:33.492Z,35.97
2018-12-29T01:47:36.935Z,38.83
2018-12-29T01:50:40.348Z,42.37
2018-12-29T01:53:46.898Z,39.43
2018-12-29T01:56:50.304Z,39.70
2018-12-29T01:59:53.741Z,39.70
2018-12-29T02:02:57.172Z,42.73
2018-12-29T02:06:00.588Z,44.20
2018-12-29T02:09:05.068Z,40.27
2018-12-29T02:12:08.485Z,41.70
2018-12-29T02:15:11.922Z,41.20
2018-12-29T02:18:15.349Z,40.30
2018-12-29T02:21:18.781Z,37.73
2018-12-29T02:24:22.258Z,38.30
2018-12-29T02:27:25.710Z,37.47
2018-12-29T02:30:29.245Z,40.73
2018-12-29T02:33:32.653Z,40.93
2018-12-29T02:36:36.103Z,38.93
2018-12-29T02:39:39.516Z,40.50
2018-12-29T02:42:42.954Z,43.20
2018-12-29T02:45:46.371Z,41.63
2018-12-29T02:48:49.805Z,36.90
2018-12-29T02:51:53.246Z,45.13
2018-12-29T02:54:56.757Z,38.57
2018-12-29T02:58:00.173Z,40.77
2018-12-29T03:01:03.600Z,40.87
2018-12-29T03:04:07.021Z,44.63
2018-12-29T03:07:10.466Z,40.30
2018-12-29T03:10:13.892Z,42.90
2018-12-29T03:13:17.313Z,40.03
2018-12-29T03:16:20.752Z,39.43
2018-12-29T03:19:24.160Z,41.87
2018-12-29T03:22:27.597Z,42.23
2018-12-29T03:25:31.008Z,39.60
2018-12-29T03:28:34.450Z,38.13
2018-12-29T03:31:37.871Z,38.87
2018-12-29T03:34:41.397Z,36.27
2018-12-29T03:37:44.808Z,40.20
2018-12-29T03:40:48.244Z,42.73
2018-12-29T03:43:51.656Z,38.20
2018-12-29T03:46:55.093Z,40.17
2018-12-29T03:49:58.513Z,41.67
2018-12-29T03:53:02.876Z,39.27
2018-12-29T03:56:06.317Z,40.23
2018-12-29T03:59:09.749Z,43.30
2018-12-29T04:02:13.185Z,35.17
2018-12-29T04:05:16.629Z,38.30
2018-12-29T04:08:20.077Z,41.17
2018-12-29T04:11:23.497Z,40.80
2018-12-29T04:14:26.933Z,38.20
2018-12-29T04:17:30.380Z,42.33
2018-12-29T04:20:33.788Z,41.10
2018-12-29T04:23:37.229Z,39.77
2018-12-29T04:26:40.646Z,37.93
2018-12-29T04:29:44.080Z,35.77
2018-12-29T04:32:47.532Z,38.40
2018-12-29T04:35:50.942Z,38.27
2018-12-29T04:38:54.393Z,39.63
2018-12-29T04:41:57.804Z,36.57
2018-12-29T04:45:01.252Z,33.43
2018-12-29T04:48:04.680Z,34.57
2018-12-29T04:51:08.130Z,36.97
2018-12-29T04:54:11.537Z,37.17
2018-12-29T04:57:14.974Z,36.87
2018-12-29T05:00:18.392Z,37.67
2018-12-29T05:03:21.837Z,39.53
2018-12-29T05:06:25.268Z,37.90
2018-12-29T05:09:28.692Z,40.53
2018-12-29T05:12:32.128Z,38.43
2018-12-29T05:15:35.546Z,36.30
2018-12-29T05:18:38.993Z,38.37
2018-12-29T05:21:42.411Z,38.13
2018-12-29T05:24:45.848Z,34.00
2018-12-29T05:27:49.261Z,39.33
2018-12-29T05:30:52.700Z,35.57
2018-12-29T05:33:56.133Z,35.63
2018-12-29T05:36:59.548Z,37.13
2018-12-29T05:40:03.180Z,34.37
2018-12-29T05:43:06.600Z,33.03
2018-12-29T05:46:10.036Z,34.97
2018-12-29T05:49:13.472Z,33.67
2018-12-29T05:52:16.913Z,36.93
2018-12-29T05:55:20.329Z,35.37
2018-12-29T05:58:23.778Z,36.00
2018-12-29T06:01:27.197Z,36.57
2018-12-29T06:04:30.637Z,34.17
2018-12-29T06:07:34.064Z,30.40
2018-12-29T06:10:37.478Z,33.23
2018-12-29T06:13:40.909Z,36.77
2018-12-29T06:16:44.321Z,31.37
2018-12-29T06:19:47.760Z,33.13
2018-12-29T06:22:51.172Z,31.93
2018-12-29T06:25:54.605Z,30.77
2018-12-29T06:28:58.044Z,30.97
2018-12-29T06:32:01.458Z,29.73
2018-12-29T06:35:05.172Z,28.23
2018-12-29T06:38:08.596Z,31.37
2018-12-29T06:41:12.017Z,28.50
2018-12-29T06:44:15.458Z,26.33
2018-12-29T06:47:18.876Z,29.83
2018-12-29T06:50:22.288Z,25.13
2018-12-29T06:53:25.724Z,26.63
2018-12-29T06:56:29.145Z,25.70
2018-12-29T06:59:32.589Z,26.03
2018-12-29T07:02:36.013Z,26.10
2018-12-29T07:05:39.460Z,23.57
2018-12-29T07:08:42.868Z,23.07
2018-12-29T07:11:46.313Z,23.93
2018-12-29T07:14:49.757Z,23.37
2018-12-29T07:17:53.177Z,27.30
2018-12-29T07:20:56.612Z,24.47
2018-12-29T07:24:00.066Z,23.93
2018-12-29T07:27:03.527Z,22.17
2018-12-29T07:30:07.913Z,22.90
2018-12-29T07:33:11.328Z,22.67
2018-12-29T07:36:14.773Z,24.13
2018-12-29T07:39:18.185Z,25.23
2018-12-29T07:42:21.628Z,26.17
2018-12-29T07:45:25.042Z,25.90
2018-12-29T07:48:28.479Z,24.67
2018-12-29T07:51:31.924Z,26.83
2018-12-29T07:54:35.336Z,23.70
2018-12-29T07:57:38.786Z,22.40
2018-12-29T08:00:42.197Z,23.70
2018-12-29T08:03:45.640Z,23.90
2018-12-29T08:06:49.057Z,24.33
2018-12-29T08:09:52.501Z,22.43
2018-12-29T08:12:55.913Z,23.63
2018-12-29T08:15:59.357Z,23.90
2018-12-29T08:19:02.795Z,24.17
2018-12-29T08:22:06.214Z,24.27
2018-12-29T08:25:09.646Z,25.53
2018-12-29T08:28:13.090Z,23.77
2018-12-29T08:31:16.541Z,26.40
2018-12-29T08:34:19.966Z,25.53
2018-12-29T08:37:23.441Z,22.50
2018-12-29T08:40:26.857Z,23.03
2018-12-29T08:43:30.321Z,24.63
2018-12-29T08:46:33.742Z,23.90
2018-12-29T08:49:37.188Z,22.13
2018-12-29T08:52:40.596Z,23.40
2018-12-29T08:55:44.065Z,20.90
2018-12-29T08:58:47.457Z,23.60
2018-12-29T09:01:50.893Z,21.77
2018-12-29T09:04:54.311Z,23.83
2018-12-29T09:07:57.756Z,25.03
2018-12-29T09:11:01.168Z,23.67
2018-12-29T09:14:04.616Z,24.70
2018-12-29T09:17:12.067Z,26.20
2018-12-29T09:20:13.197Z,24.43
2018-12-29T09:23:16.642Z,24.37
2018-12-29T09:26:20.060Z,24.33
2018-12-29T09:29:23.504Z,26.70
2018-12-29T09:32:26.916Z,23.50
2018-12-29T09:35:30.357Z,24.87
2018-12-29T09:38:33.777Z,22.87
2018-12-29T09:41:37.213Z,22.27
2018-12-29T09:44:40.657Z,23.87
2018-12-29T09:47:44.073Z,24.10
2018-12-29T09:50:47.509Z,22.90
2018-12-29T09:53:50.948Z,23.13
2018-12-29T09:56:54.380Z,25.70
2018-12-29T09:59:57.797Z,25.70
2018-12-29T10:03:01.240Z,26.53
2018-12-29T10:06:04.652Z,25.43
2018-12-29T10:09:08.101Z,26.17
2018-12-29T10:12:11.512Z,28.03
2018-12-29T10:15:14.961Z,29.53
2018-12-29T10:18:18.387Z,29.57
2018-12-29T10:21:21.820Z,24.33
2018-12-29T10:24:25.236Z,29.30
2018-12-29T10:27:28.681Z,24.70
2018-12-29T10:30:32.097Z,24.23
2018-12-29T10:33:35.541Z,24.13
2018-12-29T10:36:38.961Z,25.30
2018-12-29T10:39:42.672Z,25.73
2018-12-29T10:42:46.083Z,26.87
2018-12-29T10:45:49.531Z,25.23
2018-12-29T10:48:52.933Z,28.97
2018-12-29T10:51:56.369Z,24.50
2018-12-29T10:54:59.947Z,26.47
2018-12-29T10:58:03.396Z,24.80
2018-12-29T11:01:06.808Z,26.47
2018-12-29T11:04:10.269Z,25.10
2018-12-29T11:07:13.772Z,27.37
2018-12-29T11:10:17.190Z,27.37
2018-12-29T11:13:20.637Z,28.23
2018-12-29T11:16:24.053Z,28.67
2018-12-29T11:19:27.497Z,27.37
2018-12-29T11:22:30.929Z,31.37
2018-12-29T11:25:34.346Z,29.20
2018-12-29T11:28:37.785Z,30.00
2018-12-29T11:31:41.229Z,30.90
2018-12-29T11:34:44.649Z,33.63
2018-12-29T11:37:48.097Z,29.77
2018-12-29T11:40:51.513Z,33.20
2018-12-29T11:43:54.978Z,30.57
2018-12-29T11:46:58.387Z,32.17
2018-12-29T11:50:01.837Z,31.70
2018-12-29T11:53:05.257Z,28.73
2018-12-29T11:56:08.689Z,30.30
2018-12-29T11:59:12.105Z,27.77
2018-12-29T12:02:15.545Z,27.57
2018-12-29T12:05:19.335Z,28.33
2018-12-29T12:08:22.836Z,29.80
2018-12-29T12:11:26.256Z,28.40
2018-12-29T12:14:29.712Z,26.50
2018-12-29T12:17:33.120Z,27.03
2018-12-29T12:20:36.571Z,26.53
2018-12-29T12:23:39.978Z,25.50
2018-12-29T12:26:43.601Z,26.60
2018-12-29T12:29:47.012Z,27.50
2018-12-29T12:32:50.458Z,24.40
2018-12-29T12:35:53.872Z,24.63
2018-12-29T12:38:57.320Z,25.07
2018-12-29T12:42:01.012Z,22.03
2018-12-29T12:45:04.879Z,28.83
2018-12-29T12:48:08.326Z,25.17
2018-12-29T12:51:11.731Z,23.57
2018-12-29T12:54:15.253Z,25.83
2018-12-29T12:57:18.676Z,28.07
2018-12-29T13:00:22.480Z,23.60
2018-12-29T13:03:26.301Z,24.63
2018-12-29T13:06:29.717Z,27.00
2018-12-29T13:09:33.216Z,26.07
2018-12-29T13:12:36.640Z,23.83
2018-12-29T13:15:40.157Z,23.03
2018-12-29T13:18:43.574Z,22.00
2018-12-29T13:21:47.025Z,23.33
2018-12-29T13:24:50.440Z,23.23
2018-12-29T13:27:53.885Z,23.60
2018-12-29T13:30:57.301Z,25.20
2018-12-29T13:34:00.753Z,23.77
2018-12-29T13:37:04.182Z,24.47
2018-12-29T13:40:09.369Z,25.33
2018-12-29T13:43:12.785Z,24.23
2018-12-29T13:46:16.229Z,26.70
2018-12-29T13:49:19.641Z,24.60
2018-12-29T13:52:23.083Z,22.60
2018-12-29T13:55:26.501Z,20.93
2018-12-29T13:58:29.949Z,25.57
2018-12-29T14:01:33.613Z,23.40
2018-12-29T14:04:37.068Z,22.67
2018-12-29T14:07:41.304Z,21.67
2018-12-29T14:10:44.960Z,22.23
2018-12-29T14:13:48.540Z,24.90
2018-12-29T14:16:52.265Z,23.30
2018-12-29T14:19:55.781Z,23.10
2018-12-29T14:22:59.392Z,22.30
2018-12-29T14:26:02.869Z,22.40
2018-12-29T14:29:06.358Z,20.93
2018-12-29T14:32:09.837Z,21.33
2018-12-29T14:35:13.464Z,20.13
2018-12-29T14:38:16.880Z,20.47
2018-12-29T14:41:20.325Z,21.43
2018-12-29T14:44:23.744Z,20.97
2018-12-29T14:47:27.184Z,19.80
2018-12-29T14:50:30.601Z,17.63
2018-12-29T14:53:34.053Z,19.63
2018-12-29T14:56:37.744Z,18.57
2018-12-29T14:59:41.185Z,17.47
2018-12-29T15:02:44.596Z,17.30
2018-12-29T15:05:48.042Z,19.13
2018-12-29T15:08:51.481Z,17.40
2018-12-29T15:11:54.913Z,19.00
2018-12-29T15:14:58.420Z,18.93
2018-12-29T15:18:01.919Z,16.53
2018-12-29T15:21:05.851Z,16.47
2018-12-29T15:24:09.484Z,18.50
2018-12-29T15:27:13.106Z,17.20
2018-12-29T15:30:16.798Z,18.40
2018-12-29T15:33:20.571Z,18.77
2018-12-29T15:36:24.161Z,18.50
2018-12-29T15:39:27.853Z,15.07
2018-12-29T15:42:31.497Z,18.40
2018-12-29T15:45:35.204Z,14.40
2018-12-29T15:48:38.842Z,16.10
2018-12-29T15:51:42.411Z,14.60
2018-12-29T15:54:46.116Z,13.80
2018-12-29T15:57:49.601Z,14.07
2018-12-29T16:00:53.036Z,13.83
2018-12-29T16:03:56.452Z,14.23
2018-12-29T16:06:59.960Z,13.57
2018-12-29T16:10:04.316Z,10.40
2018-12-29T16:13:07.760Z,15.33
2018-12-29T16:16:11.204Z,13.87
2018-12-29T16:19:14.708Z,13.30
2018-12-29T16:22:18.192Z,13.13
2018-12-29T16:25:22.308Z,11.80
2018-12-29T16:28:25.842Z,13.10
2018-12-29T16:31:29.395Z,15.37
2018-12-29T16:34:32.924Z,13.47
2018-12-29T16:37:37.533Z,13.57
2018-12-29T16:40:41.294Z,11.93
2018-12-29T16:43:44.883Z,14.00
2018-12-29T16:46:48.469Z,13.07
2018-12-29T16:49:52.034Z,13.57
2018-12-29T16:52:55.831Z,14.47
2018-12-29T16:55:59.336Z,14.90
2018-12-29T16:59:02.761Z,13.77
2018-12-29T17:02:06.196Z,13.90
2018-12-29T17:05:09.609Z,14.13
2018-12-29T17:08:13.040Z,13.67
2018-12-29T17:11:16.733Z,14.00
2018-12-29T17:14:20.549Z,14.73
2018-12-29T17:17:23.995Z,14.70
2018-12-29T17:20:27.399Z,14.10
2018-12-29T17:23:30.842Z,12.60
2018-12-29T17:26:34.344Z,14.13
2018-12-29T17:29:37.856Z,14.43
2018-12-29T17:32:41.273Z,17.07
2018-12-29T17:35:44.997Z,17.63
2018-12-29T17:38:48.989Z,14.07
2018-12-29T17:41:52.601Z,13.03
2018-12-29T17:44:56.300Z,14.47
2018-12-29T17:47:59.939Z,13.60
2018-12-29T17:51:03.972Z,14.63
2018-12-29T17:54:07.848Z,15.47
2018-12-29T17:57:11.350Z,15.83
2018-12-29T18:00:14.858Z,16.57
2018-12-29T18:03:18.353Z,15.07
2018-12-29T18:06:21.975Z,13.93
2018-12-29T18:09:25.506Z,14.80
2018-12-29T18:12:29.308Z,13.50
2018-12-29T18:15:32.832Z,15.53
2018-12-29T18:18:39.471Z,14.30
2018-12-29T18:21:42.981Z,14.87
2018-12-29T18:24:46.389Z,14.07
2018-12-29T18:27:49.876Z,13.70
2018-12-29T18:30:53.320Z,12.27
2018-12-29T18:33:56.833Z,14.60
2018-12-29T18:37:00.230Z,13.47
2018-12-29T18:40:04.212Z,12.50
2018-12-29T18:43:07.625Z,14.20
2018-12-29T18:46:11.141Z,12.10
2018-12-29T18:49:14.592Z,10.87
2018-12-29T18:52:18.069Z,10.87
2018-12-29T18:55:21.509Z,11.63
2018-12-29T18:58:25.199Z,12.27
2018-12-29T19:01:28.689Z,8.97
2018-12-29T19:04:32.125Z,10.57
2018-12-29T19:07:35.545Z,10.13
2018-12-29T19:10:39.160Z,12.07
2018-12-29T19:13:42.854Z,12.00
2018-12-29T19:16:46.289Z,11.60
2018-12-29T19:19:49.722Z,11.73
2018-12-29T19:22:53.161Z,12.13
2018-12-29T19:25:56.601Z,13.57
2018-12-29T19:29:00.397Z,16.33
2018-12-29T19:32:03.854Z,14.57
2018-12-29T19:35:07.625Z,15.07
2018-12-29T19:38:11.127Z,15.07
2018-12-29T19:41:14.868Z,16.83
2018-12-29T19:44:18.678Z,15.93
2018-12-29T19:47:22.401Z,18.27
2018-12-29T19:50:25.889Z,16.67
2018-12-29T19:53:29.392Z,16.50
2018-12-29T19:56:32.913Z,17.83
2018-12-29T19:59:36.601Z,16.53
2018-12-29T20:02:40.050Z,22.50
2018-12-29T20:05:43.738Z,19.07
2018-12-29T20:08:47.173Z,19.90
2018-12-29T20:11:50.613Z,22.23
2018-12-29T20:14:54.029Z,21.10
2018-12-29T20:17:57.468Z,21.00
2018-12-29T20:21:00.905Z,21.40
2018-12-29T20:24:04.393Z,20.60
2018-12-29T20:27:07.833Z,20.67
2018-12-29T20:30:11.249Z,19.93
2018-12-29T20:33:14.684Z,22.17
2018-12-29T20:36:18.120Z,20.43
2018-12-29T20:39:21.581Z,24.33
2018-12-29T20:42:25.061Z,20.20
2018-12-29T20:45:28.538Z,20.20
2018-12-29T20:48:31.965Z,21.20
2018-12-29T20:51:35.416Z,23.60
2018-12-29T20:54:38.929Z,22.73
2018-12-29T20:57:42.349Z,21.93
2018-12-29T21:00:45.792Z,20.03
2018-12-29T21:03:49.208Z,21.60
2018-12-29T21:06:53.032Z,23.53
2018-12-29T21:09:56.472Z,22.53
2018-12-29T21:12:59.916Z,23.20
2018-12-29T21:16:03.331Z,24.10
2018-12-29T21:19:06.848Z,27.83
2018-12-29T21:22:10.265Z,27.67
2018-12-29T21:25:13.701Z,24.57
2018-12-29T21:28:17.117Z,25.57
2018-12-29T21:31:20.553Z,26.67
2018-12-29T21:34:24.121Z,27.43
2018-12-29T21:37:27.557Z,26.83
2018-12-29T21:40:31.089Z,29.30
2018-12-29T21:43:34.576Z,28.10
2018-12-29T21:46:38.294Z,28.97
2018-12-29T21:49:41.847Z,51.77
2018-12-29T21:52:45.280Z,50.90
2018-12-29T21:55:48.976Z,45.13
2018-12-29T21:58:52.455Z,55.90
2018-12-29T22:01:55.965Z,112.37
2018-12-29T22:04:59.384Z,47.43
2018-12-29T22:08:02.807Z,54.53
2018-12-29T22:11:06.246Z,26.43
2018-12-29T22:14:09.668Z,24.93
2018-12-29T22:17:13.096Z,29.43
2018-12-29T22:20:16.531Z,28.60
2018-12-29T22:23:19.944Z,28.53
2018-12-29T22:26:23.384Z,30.13
2018-12-29T22:29:26.788Z,28.00
2018-12-29T22:32:30.241Z,24.97
2018-12-29T22:35:33.962Z,23.50
2018-12-29T22:38:37.399Z,22.00
2018-12-29T22:41:40.865Z,22.43
2018-12-29T22:44:44.297Z,23.23
2018-12-29T22:47:47.816Z,17.30
2018-12-29T22:50:51.325Z,19.30
2018-12-29T22:53:54.732Z,18.87
2018-12-29T22:56:58.196Z,11.87
2018-12-29T23:00:01.724Z,9.30
2018-12-29T23:03:05.280Z,10.63
2018-12-29T23:06:08.694Z,6.70
2018-12-29T23:09:12.203Z,8.70
2018-12-29T23:12:15.626Z,7.90
2018-12-29T23:15:19.061Z,7.33
2018-12-29T23:18:22.578Z,8.23
2018-12-29T23:21:25.994Z,4.77
2018-12-29T23:24:29.501Z,6.47
2018-12-29T23:27:32.904Z,5.33
2018-12-29T23:30:36.332Z,8.83
2018-12-29T23:33:39.760Z,9.30
2018-12-29T23:36:43.201Z,5.60
2018-12-29T23:39:46.691Z,3.60
2018-12-29T23:42:50.196Z,6.27
2018-12-29T23:45:53.689Z,4.20
2018-12-29T23:48:57.140Z,6.37
2018-12-29T23:52:00.620Z,11.83
2018-12-29T23:55:04.226Z,5.80
2018-12-29T23:58:07.657Z,5.70
